Time;durP1;ratioP1;P1;durP2;ratioP2;P2;SDS_P1;SDS_P2;PMS_P1;PMS_P2;Temp;Humidity;BMP_temperature;BMP_pressure;BME280_temperature;BME280_humidity;BME280_pressure;Samples;Min_cycle;Max_cycle;Signal;HPM_P1;HPM_P2
2021/10/24 03:22:21;;;;;;;;;;;;;;;7.48;100.00;100515.91;4981917;28;20000;-83
2021/10/24 03:24:47;;;;;;;;;;;;;;;7.47;100.00;100503.63;4985527;28;20373;-83
2021/10/24 03:27:12;;;;;;;;;;;;;;;7.53;100.00;100513.19;4985603;28;19977;-82
2021/10/24 03:29:37;;;;;;;;;;;;;;;7.54;100.00;100514.94;4968647;28;19925;-83
2021/10/24 03:32:03;;;;;;;;;;;;;;;7.55;100.00;100516.69;4986005;28;19918;-82
2021/10/24 03:34:28;;;;;;;;;;;;;;;7.54;100.00;100514.94;4985238;28;19925;-81
2021/10/24 03:36:53;;;;;;;;;;;;;;;7.56;100.00;100521.94;4966840;28;19918;-82
2021/10/24 03:39:19;;;;;;;;;;;;;;;7.58;100.00;100519.28;4985373;28;19926;-83
2021/10/24 03:41:44;;;;;;;;;;;;;;;7.59;100.00;100523.63;4985485;28;20270;-82
2021/10/24 03:44:09;;;;;;;;;;;;;;;7.60;100.00;100528.00;4985162;28;19918;-83
2021/10/24 03:46:35;;;;;;;;;;;;;;;7.60;100.00;100522.75;4985408;28;20028;-83
2021/10/24 03:49:01;;;;;;;;;;;;;;;7.64;100.00;100532.31;4985477;28;19929;-83
2021/10/24 03:51:27;;;;;;;;;;;;;;;7.61;100.00;100525.34;4983870;28;19917;-83
2021/10/24 03:53:52;;;;;;;;;;;;;;;5.82;100.00;100527.13;4985482;28;19965;-83
2021/10/24 03:56:17;;;;;;;;;;;;;;;4.75;100.00;100543.00;4985014;28;19917;-82
2021/10/24 03:58:44;;;;;;;;;;;;;;;4.18;100.00;100541.59;4984997;28;20357;-83
2021/10/24 04:01:09;;;;;;;;;;;;;;;3.90;100.00;100534.72;4984996;28;19918;-83
2021/10/24 04:03:34;;;;;;;;;;;;;;;3.70;100.00;100538.28;4984984;28;19925;-82
2021/10/24 04:06:00;;;;;;;;;;;;;;;3.46;99.59;100539.19;4984241;28;19918;-82
2021/10/24 04:08:25;;;;;;;;;;;;;;;3.33;98.86;100537.47;4985055;28;20000;-82
2021/10/24 04:10:50;;;;;;;;;;;;;;;3.18;98.96;100538.38;4984641;28;19918;-82
2021/10/24 04:13:15;;;;;;;;;;;;;;;3.16;98.98;100546.22;4984871;28;19965;-82
2021/10/24 04:15:41;;;;;;;;;;;;;;;3.03;98.42;100545.34;4985363;28;19973;-82
2021/10/24 04:18:06;;;;;;;;;;;;;;;3.04;98.91;100540.97;4984863;28;20013;-82
2021/10/24 04:20:31;;;;;;;;;;;;;;;2.97;98.93;100540.13;4983529;28;19976;-81
2021/10/24 04:22:56;;;;;;;;;;;;;;;2.78;99.32;100533.13;4984497;28;19933;-82
2021/10/24 04:25:24;;;;;;;;;;;;;;;2.72;98.95;100527.00;4984836;28;19929;-82
2021/10/24 04:27:50;;;;;;;;;;;;;;;2.55;98.43;100533.94;4984621;28;20381;-82
2021/10/24 04:30:15;;;;;;;;;;;;;;;2.60;98.52;100533.94;4984508;28;19918;-82
2021/10/24 04:32:43;;;;;;;;;;;;;;;2.50;97.78;100533.94;4984723;28;20300;-82
2021/10/24 04:35:08;;;;;;;;;;;;;;;2.49;97.77;100531.31;4983273;28;19977;-82
2021/10/24 04:37:33;;;;;;;;;;;;;;;2.38;96.72;100533.03;4984205;28;19980;-82
2021/10/24 04:39:59;;;;;;;;;;;;;;;2.38;95.95;100527.81;4966852;28;19918;-82
2021/10/24 04:42:24;;;;;;;;;;;;;;;2.18;95.47;100518.16;4984685;28;19922;-82
2021/10/24 04:44:49;;;;;;;;;;;;;;;2.14;94.94;100527.75;4984393;28;20401;-83
2021/10/24 04:47:15;;;;;;;;;;;;;;;2.09;94.32;100529.47;4983936;28;19944;-82
2021/10/24 04:49:40;;;;;;;;;;;;;;;2.03;93.47;100525.94;4984493;28;19924;-82
2021/10/24 04:52:05;;;;;;;;;;;;;;;1.87;93.43;100525.91;4982337;28;19926;-82
2021/10/24 04:54:31;;;;;;;;;;;;;;;1.71;92.73;100524.06;4983975;28;19961;-82
2021/10/24 04:56:56;;;;;;;;;;;;;;;1.95;92.87;100523.31;4984348;28;19926;-82
2021/10/24 04:59:22;;;;;;;;;;;;;;;2.26;94.79;100519.06;4984028;28;20013;-82
2021/10/24 05:01:48;;;;;;;;;;;;;;;2.63;97.65;100521.78;4983918;28;19918;-82
2021/10/24 05:04:13;;;;;;;;;;;;;;;2.81;100.00;100514.78;4984250;28;19917;-81
2021/10/24 05:06:38;;;;;;;;;;;;;;;2.94;100.00;100505.22;4982828;28;20005;-82
2021/10/24 05:09:04;;;;;;;;;;;;;;;3.01;100.00;100506.94;4982915;28;20001;-82
2021/10/24 12:41:44;;;;;;;;;;;;;;;5.38;77.41;100318.25;5833246;22;19980;-80
2021/10/24 12:44:11;;;;;;;;;;;;;;;5.36;78.10;100331.41;5004176;28;20372;-81
2021/10/24 12:46:37;;;;;;;;;;;;;;;5.39;78.61;100322.59;4993963;28;19967;-81
2021/10/24 12:49:09;;;;;;;;;;;;;;;5.37;78.99;100321.75;4994328;28;20271;-81
2021/10/24 12:51:34;;;;;;;;;;;;;;;5.49;80.06;100313.72;4994021;28;19953;-81
2021/10/24 12:54:01;;;;;;;;;;;;;;;5.66;81.92;100315.22;4994018;28;19971;-81
2021/10/24 12:56:26;;;;;;;;;;;;;;;5.73;83.70;100306.38;4992449;28;19918;-81
2021/10/24 12:58:52;;;;;;;;;;;;;;;5.73;85.16;100301.97;4993732;28;19928;-81
2021/10/24 13:01:24;;;;;;;;;;;;;;;5.69;86.65;100307.28;4993944;28;20405;-81
2021/10/24 13:03:50;;;;;;;;;;;;;;;5.66;87.66;100302.09;4993079;28;20373;-81
2021/10/24 13:06:15;;;;;;;;;;;;;;;5.57;88.34;100303.97;4993679;28;19925;-81
2021/10/24 13:08:43;;;;;;;;;;;;;;;5.48;88.66;100304.06;4975418;28;19929;-81
2021/10/24 13:11:09;;;;;;;;;;;;;;;5.36;88.92;100305.13;4992892;28;20280;-81
2021/10/24 13:13:34;;;;;;;;;;;;;;;5.25;89.33;100302.63;4993504;28;19922;-81
2021/10/24 13:16:00;;;;;;;;;;;;;;;5.23;90.43;100293.91;4992586;28;19929;-82
2021/10/24 13:18:25;;;;;;;;;;;;;;;5.26;92.23;100292.97;4993566;28;19965;-81
2021/10/24 13:23:34;;;;;;;;;;;;;;;5.35;97.24;100292.00;4993575;28;20015;-81
2021/10/24 13:25:59;;;;;;;;;;;;;;;5.48;100.00;100280.41;4992076;28;19974;-81
2021/10/24 13:28:25;;;;;;;;;;;;;;;5.69;100.00;100283.63;4993318;28;19925;-81
2021/10/24 13:30:51;;;;;;;;;;;;;;;5.87;100.00;100278.09;4993194;28;19918;-82
2021/10/24 13:33:16;;;;;;;;;;;;;;;6.05;100.00;100270.81;4975630;28;20373;-81
2021/10/24 13:35:42;;;;;;;;;;;;;;;6.12;100.00;100269.84;4992685;28;20009;-83
2021/10/24 13:38:09;;;;;;;;;;;;;;;6.21;100.00;100264.41;4991929;28;19922;-81
2021/10/24 13:40:34;;;;;;;;;;;;;;;6.29;100.00;100267.78;4990946;28;20377;-82
2021/10/24 13:42:59;;;;;;;;;;;;;;;6.35;100.00;100256.25;4992282;28;19932;-81
2021/10/24 13:45:26;;;;;;;;;;;;;;;6.44;100.00;100257.88;4992064;28;19918;-81
2021/10/24 13:47:51;;;;;;;;;;;;;;;6.46;100.00;100254.31;4974373;28;19914;-82
2021/10/24 13:50:16;;;;;;;;;;;;;;;6.53;100.00;100255.06;4991952;28;19922;-81
2021/10/24 13:52:42;;;;;;;;;;;;;;;6.55;100.00;100248.00;4992072;28;20005;-81
2021/10/24 13:55:07;;;;;;;;;;;;;;;6.61;100.00;100249.66;4974332;28;19929;-82
2021/10/24 13:57:33;;;;;;;;;;;;;;;6.62;100.00;100251.38;4989811;28;19924;-82
2021/10/24 13:59:58;;;;;;;;;;;;;;;6.67;100.00;100250.41;4991560;28;19964;-82
2021/10/24 14:02:24;;;;;;;;;;;;;;;6.70;100.00;100245.09;4974275;28;19918;-81
2021/10/24 14:04:49;;;;;;;;;;;;;;;6.74;100.00;100237.97;4991760;28;20484;-81
2021/10/24 14:07:14;;;;;;;;;;;;;;;6.79;100.00;100243.16;4991618;28;20377;-81
2021/10/24 14:09:43;;;;;;;;;;;;;;;6.81;100.00;100236.97;4991640;28;19922;-81
2021/10/24 14:12:09;;;;;;;;;;;;;;;6.85;100.00;100243.91;4990206;28;20324;-81
2021/10/24 14:14:35;;;;;;;;;;;;;;;6.89;100.00;100236.78;4990984;28;19925;-81
2021/10/24 14:17:00;;;;;;;;;;;;;;;6.90;100.00;100238.53;4991824;28;20050;-82
2021/10/24 14:19:25;;;;;;;;;;;;;;;6.93;100.00;100238.47;4974161;28;20023;-81
2021/10/24 14:21:51;;;;;;;;;;;;;;;6.94;100.00;100237.59;4991575;28;19918;-82
2021/10/24 14:24:18;;;;;;;;;;;;;;;6.97;100.00;100240.13;4993812;28;20060;-81
2021/10/24 14:26:47;;;;;;;;;;;;;;;5.92;100.00;100233.28;4994447;28;19918;-82
2021/10/24 14:29:13;;;;;;;;;;;;;;;4.48;100.00;100230.03;4995646;28;19928;-82
2021/10/24 14:31:38;;;;;;;;;;;;;;;3.89;100.00;100234.06;4995686;28;19918;-81
2021/10/24 14:34:04;;;;;;;;;;;;;;;3.60;100.00;100238.66;4995379;28;19941;-82
2021/10/24 14:36:30;;;;;;;;;;;;;;;3.35;100.00;100237.97;4995548;28;19917;-82
2021/10/24 14:38:55;;;;;;;;;;;;;;;3.13;100.00;100237.22;4995605;28;19939;-82
2021/10/24 14:41:22;;;;;;;;;;;;;;;2.99;100.00;100237.28;4994300;28;19964;-81
2021/10/24 14:43:47;;;;;;;;;;;;;;;2.89;100.00;100232.97;4994187;28;19960;-81
2021/10/24 14:46:13;;;;;;;;;;;;;;;2.88;98.50;100237.31;4995235;28;19965;-82
2021/10/24 14:48:38;;;;;;;;;;;;;;;2.77;97.14;100238.25;4995422;28;20016;-82
2021/10/24 14:51:03;;;;;;;;;;;;;;;2.67;96.81;100229.56;4977585;28;19918;-82
2021/10/24 14:53:28;;;;;;;;;;;;;;;2.65;95.88;100234.78;4995448;28;19976;-81
2021/10/24 14:55:54;;;;;;;;;;;;;;;2.42;95.35;100232.22;4993964;28;19996;-82
2021/10/24 14:58:19;;;;;;;;;;;;;;;2.45;94.66;100229.59;4994965;28;19925;-82
2021/10/24 15:00:44;;;;;;;;;;;;;;;2.39;94.00;100226.16;4994983;28;20001;-82
2021/10/24 15:03:10;;;;;;;;;;;;;;;2.30;93.06;100227.91;4995047;28;19918;-81
2021/10/24 15:05:35;;;;;;;;;;;;;;;2.16;92.40;100219.22;4994966;28;19963;-82
2021/10/24 15:08:00;;;;;;;;;;;;;;;2.07;91.95;100217.47;4977479;28;19953;-82
2021/10/24 15:10:26;;;;;;;;;;;;;;;1.98;91.48;100207.06;4994950;28;19926;-81
2021/10/24 15:12:51;;;;;;;;;;;;;;;1.94;90.99;100211.38;4993633;28;19953;-82
2021/10/24 15:15:17;;;;;;;;;;;;;;;2.18;92.43;100207.88;4976996;28;20040;-82
2021/10/24 15:17:46;;;;;;;;;;;;;;;2.67;96.91;100204.25;4995413;28;19922;-82
2021/10/24 15:22:56;;;;;;;;;;;;;;;3.02;100.00;100194.50;4994620;28;19925;-81
2021/10/24 15:25:22;;;;;;;;;;;;;;;3.05;100.00;100192.72;4994601;28;19922;-82
2021/10/24 15:27:47;;;;;;;;;;;;;;;3.12;100.00;100196.19;4993167;28;20323;-82
2021/10/24 15:30:12;;;;;;;;;;;;;;;3.17;100.00;100191.78;4994517;28;20320;-82
2021/10/24 15:32:37;;;;;;;;;;;;;;;3.16;100.00;100189.16;4976802;28;19918;-82
2021/10/24 15:35:03;;;;;;;;;;;;;;;3.19;100.00;100197.00;4993447;28;19918;-82
2021/10/24 15:37:28;;;;;;;;;;;;;;;3.22;100.00;100194.38;4994482;28;20313;-82
2021/10/24 15:39:54;;;;;;;;;;;;;;;3.20;100.00;100196.13;4994177;28;19918;-82
2021/10/24 15:42:20;;;;;;;;;;;;;;;3.25;100.00;100189.13;4975579;28;20019;-82
2021/10/24 15:44:46;;;;;;;;;;;;;;;3.27;100.00;100183.00;4994171;28;20369;-82
2021/10/24 15:47:11;;;;;;;;;;;;;;;3.28;100.00;100183.84;4994099;28;19925;-82
2021/10/24 15:49:37;;;;;;;;;;;;;;;3.30;100.00;100184.72;4994150;28;19925;-82
2021/10/24 15:52:03;;;;;;;;;;;;;;;3.30;100.00;100179.47;4994366;28;19929;-82
2021/10/24 15:54:29;;;;;;;;;;;;;;;3.25;100.00;100174.25;4994102;28;19973;-81
2021/10/24 15:56:54;;;;;;;;;;;;;;;3.37;100.00;100170.69;4975394;28;19961;-82
2021/10/24 15:59:20;;;;;;;;;;;;;;;3.32;100.00;100167.25;4993871;28;20284;-82
2021/10/24 16:01:45;;;;;;;;;;;;;;;3.34;100.00;100162.88;4993835;28;19922;-82
2021/10/24 16:04:10;;;;;;;;;;;;;;;3.40;100.00;100168.06;4993933;28;19968;-82
2021/10/24 16:06:36;;;;;;;;;;;;;;;3.37;100.00;100162.84;4993993;28;19925;-82
2021/10/24 16:09:03;;;;;;;;;;;;;;;3.43;100.00;100160.19;4993878;28;19940;-83
2021/10/24 16:11:28;;;;;;;;;;;;;;;3.43;100.00;100162.81;4992390;28;20285;-82
2021/10/24 16:13:53;;;;;;;;;;;;;;;3.44;100.00;100156.66;4993901;28;19922;-82
2021/10/24 16:16:19;;;;;;;;;;;;;;;3.47;100.00;100168.03;4993727;28;20437;-82
2021/10/24 16:18:44;;;;;;;;;;;;;;;3.47;100.00;100162.78;4993599;28;19924;-83
2021/10/24 16:21:09;;;;;;;;;;;;;;;3.50;99.84;100168.84;4993795;28;20341;-82
2021/10/24 16:23:35;;;;;;;;;;;;;;;3.53;98.70;100170.59;4993699;28;19917;-82
2021/10/24 16:26:00;;;;;;;;;;;;;;;3.54;97.78;100174.94;4974917;28;19917;-82
2021/10/24 16:28:25;;;;;;;;;;;;;;;3.52;97.04;100172.31;4993432;28;19924;-82
2021/10/24 16:30:51;;;;;;;;;;;;;;;3.57;96.16;100174.91;4993503;28;19925;-82
2021/10/24 16:33:17;;;;;;;;;;;;;;;3.58;95.59;100177.53;4993388;28;20097;-82
2021/10/24 16:35:43;;;;;;;;;;;;;;;3.62;94.91;100179.25;4993162;28;20013;-83
2021/10/24 16:38:08;;;;;;;;;;;;;;;3.62;94.40;100167.88;4993268;28;19922;-83
2021/10/24 16:40:33;;;;;;;;;;;;;;;3.63;93.72;100180.09;4992462;28;20293;-83
2021/10/24 16:42:58;;;;;;;;;;;;;;;3.61;93.36;100179.25;4966177;28;19929;-82
2021/10/24 16:45:24;;;;;;;;;;;;;;;3.62;92.86;100173.13;4973529;28;19992;-83
2021/10/24 16:47:49;;;;;;;;;;;;;;;3.63;92.23;100170.47;4972537;28;20094;-83
2021/10/24 16:50:16;;;;;;;;;;;;;;;3.62;92.09;100173.13;4956320;28;20075;-83
2021/10/24 16:52:43;;;;;;;;;;;;;;;3.62;91.84;100170.50;4973553;28;19922;-83
2021/10/24 16:55:08;;;;;;;;;;;;;;;3.62;91.36;100167.88;4974558;28;19977;-83
2021/10/24 16:57:33;;;;;;;;;;;;;;;3.69;91.08;100179.19;4972118;28;19926;-83
2021/10/24 16:59:59;;;;;;;;;;;;;;;3.66;90.89;100180.09;4973430;28;20397;-84
2021/10/24 17:02:25;;;;;;;;;;;;;;;3.70;90.70;100179.19;4972771;28;20336;-82
2021/10/24 17:04:50;;;;;;;;;;;;;;;3.70;90.39;100178.31;4973367;28;19968;-82
2021/10/24 17:07:16;;;;;;;;;;;;;;;3.69;90.06;100180.06;4973302;28;19965;-84
2021/10/24 17:09:43;;;;;;;;;;;;;;;3.68;89.86;100182.69;4973174;28;19918;-83
2021/10/24 17:12:09;;;;;;;;;;;;;;;3.68;89.83;100182.69;4971267;28;20397;-83
2021/10/24 17:14:34;;;;;;;;;;;;;;;3.70;89.71;100176.56;4973328;28;19918;-83
2021/10/24 17:16:59;;;;;;;;;;;;;;;3.70;89.55;100179.19;4972818;28;20512;-83
2021/10/24 17:19:25;;;;;;;;;;;;;;;3.71;89.12;100178.28;4973011;28;19973;-83
2021/10/24 17:21:50;;;;;;;;;;;;;;;3.66;89.01;100180.09;4973167;28;20040;-83
2021/10/24 17:24:16;;;;;;;;;;;;;;;3.68;88.98;100186.19;4973065;28;19918;-83
2021/10/24 17:26:41;;;;;;;;;;;;;;;3.70;88.58;100194.03;4971739;28;19961;-83
2021/10/24 17:29:07;;;;;;;;;;;;;;;3.70;88.30;100192.28;4972896;28;19918;-82
2021/10/24 17:31:32;;;;;;;;;;;;;;;3.72;87.88;100200.13;4955424;28;19924;-83
2021/10/24 17:33:58;;;;;;;;;;;;;;;3.69;87.58;100198.41;4972946;28;20285;-83
2021/10/24 17:36:23;;;;;;;;;;;;;;;3.69;87.79;100201.03;4972565;28;19922;-83
2021/10/24 17:38:48;;;;;;;;;;;;;;;3.71;87.69;100207.13;4972925;28;19918;-83
2021/10/24 17:41:13;;;;;;;;;;;;;;;3.69;87.49;100208.91;4971405;28;19922;-84
2021/10/24 17:43:39;;;;;;;;;;;;;;;3.66;87.28;100206.28;4987073;28;19922;-83
2021/10/24 17:46:04;;;;;;;;;;;;;;;3.66;86.99;100206.28;4991962;28;19922;-84
2021/10/24 17:48:29;;;;;;;;;;;;;;;3.66;86.85;100206.28;4992274;28;20369;-83
2021/10/24 17:50:54;;;;;;;;;;;;;;;3.69;86.61;100208.03;4992176;28;20285;-84
2021/10/24 17:53:21;;;;;;;;;;;;;;;3.69;86.35;100201.03;4991954;28;19925;-83
2021/10/24 17:55:46;;;;;;;;;;;;;;;3.70;86.55;100208.03;4990635;28;20285;-83
2021/10/24 17:58:12;;;;;;;;;;;;;;;3.68;86.45;100201.91;4990449;28;19928;-83
2021/10/24 18:00:37;;;;;;;;;;;;;;;3.69;86.27;100202.78;4991437;28;19985;-83
2021/10/24 18:03:04;;;;;;;;;;;;;;;3.71;85.92;100211.50;4991623;28;20383;-84
2021/10/24 18:05:29;;;;;;;;;;;;;;;3.70;85.77;100209.75;4990900;28;19921;-86
2021/10/24 18:07:54;;;;;;;;;;;;;;;3.71;85.46;100198.41;4991468;28;19922;-82
2021/10/24 18:10:20;;;;;;;;;;;;;;;3.74;85.02;100208.84;4991387;28;19957;-83
2021/10/24 18:12:47;;;;;;;;;;;;;;;3.73;84.90;100207.97;4989985;28;19922;-83
2021/10/24 18:15:13;;;;;;;;;;;;;;;3.69;84.69;100203.66;4990546;28;19922;-84
2021/10/24 18:17:38;;;;;;;;;;;;;;;3.73;84.51;100205.34;4991024;28;19925;-84
2021/10/24 18:20:04;;;;;;;;;;;;;;;3.75;84.30;100198.38;4991463;28;19926;-83
2021/10/24 18:22:30;;;;;;;;;;;;;;;3.74;84.14;100196.63;4991722;28;19949;-83
2021/10/24 18:24:56;;;;;;;;;;;;;;;3.77;83.93;100196.59;4973717;28;20459;-84
2021/10/24 18:27:22;;;;;;;;;;;;;;;3.75;83.72;100200.97;4990577;28;19960;-82
2021/10/24 18:29:47;;;;;;;;;;;;;;;3.74;83.50;100199.22;4991497;28;19961;-83
2021/10/24 18:32:12;;;;;;;;;;;;;;;3.73;83.39;100202.72;4991353;28;20385;-83
2021/10/24 18:34:38;;;;;;;;;;;;;;;3.77;83.57;100208.84;4973712;28;19944;-82
2021/10/24 18:37:04;;;;;;;;;;;;;;;3.75;83.42;100200.09;4990160;28;19922;-84
2021/10/24 18:39:29;;;;;;;;;;;;;;;3.76;83.24;100197.47;4991015;28;19948;-83
2021/10/24 18:41:55;;;;;;;;;;;;;;;3.82;82.94;100199.19;4989837;28;20384;-82
2021/10/24 18:44:20;;;;;;;;;;;;;;;3.79;82.87;100192.19;4991482;28;19925;-83
2021/10/24 18:46:46;;;;;;;;;;;;;;;3.79;82.57;100189.56;4990843;28;19954;-83
2021/10/24 18:49:12;;;;;;;;;;;;;;;3.80;82.67;100191.31;4991462;28;19929;-82
2021/10/24 18:51:38;;;;;;;;;;;;;;;3.84;82.52;100184.28;4990538;28;19949;-82
2021/10/24 18:54:03;;;;;;;;;;;;;;;3.82;82.30;100181.69;4973398;28;19929;-84
2021/10/24 18:56:28;;;;;;;;;;;;;;;3.80;82.10;100179.97;4989656;28;19964;-84
2021/10/24 18:58:54;;;;;;;;;;;;;;;3.82;81.67;100184.31;4991031;28;20361;-82
2021/10/24 19:01:19;;;;;;;;;;;;;;;3.87;81.49;100179.03;4990561;28;19953;-82
2021/10/24 19:03:44;;;;;;;;;;;;;;;3.86;81.47;100177.31;4990341;28;20281;-83
2021/10/24 19:06:10;;;;;;;;;;;;;;;3.87;81.21;100179.03;4973558;28;19925;-83
2021/10/24 19:08:40;;;;;;;;;;;;;;;3.90;81.00;100180.75;4990689;28;19929;-83
2021/10/24 19:11:05;;;;;;;;;;;;;;;3.91;81.05;100179.84;4991526;28;20393;-83
2021/10/24 19:13:33;;;;;;;;;;;;;;;3.90;80.87;100178.13;4994547;28;19918;-82
2021/10/24 19:16:00;;;;;;;;;;;;;;;3.90;80.58;100178.13;4977135;28;19925;-83
2021/10/24 19:18:25;;;;;;;;;;;;;;;3.93;80.45;100180.72;4994175;28;19925;-84
2021/10/24 19:20:51;;;;;;;;;;;;;;;3.90;80.27;100173.75;4977063;28;19926;-84
2021/10/24 19:23:16;;;;;;;;;;;;;;;3.94;80.15;100175.47;4994853;28;19921;-83
2021/10/24 19:25:42;;;;;;;;;;;;;;;3.95;79.85;100176.34;4993115;28;20008;-83
2021/10/24 19:28:07;;;;;;;;;;;;;;;4.00;79.66;100182.41;4994181;28;19922;-83
2021/10/24 19:30:33;;;;;;;;;;;;;;;3.98;79.45;100179.78;4993712;28;20000;-83
2021/10/24 19:32:58;;;;;;;;;;;;;;;4.01;79.22;100176.28;4994414;28;19922;-83
2021/10/24 19:35:23;;;;;;;;;;;;;;;4.01;79.35;100171.03;4994396;28;19918;-84
2021/10/24 19:37:49;;;;;;;;;;;;;;;4.02;79.30;100177.13;4993802;28;19925;-87
2021/10/24 19:40:15;;;;;;;;;;;;;;;4.04;79.19;100176.25;4994040;28;19957;-83
2021/10/24 19:42:43;;;;;;;;;;;;;;;4.06;79.14;100182.34;4992953;28;20021;-83
2021/10/24 19:45:08;;;;;;;;;;;;;;;4.04;79.09;100176.25;4993699;28;19977;-83
2021/10/24 19:47:34;;;;;;;;;;;;;;;4.04;78.95;100173.63;4993613;28;20352;-82
2021/10/24 19:49:59;;;;;;;;;;;;;;;4.09;78.65;100163.94;4976288;28;19925;-84
2021/10/24 19:52:24;;;;;;;;;;;;;;;4.09;78.38;100174.44;4993369;28;19926;-83
2021/10/24 19:54:56;;;;;;;;;;;;;;;4.09;78.17;100166.56;4993815;28;20020;-83
2021/10/24 19:57:22;;;;;;;;;;;;;;;4.09;78.21;100163.94;4992468;28;19929;-84
2021/10/24 19:59:47;;;;;;;;;;;;;;;4.12;78.11;100168.31;4993216;28;19922;-84
2021/10/24 20:02:13;;;;;;;;;;;;;;;4.11;77.59;100156.94;4993865;28;20423;-84
2021/10/24 20:04:38;;;;;;;;;;;;;;;4.14;77.78;100156.91;4993689;28;19961;-83
2021/10/24 20:07:03;;;;;;;;;;;;;;;4.14;77.66;100166.53;4993029;28;20297;-84
2021/10/24 20:09:28;;;;;;;;;;;;;;;4.16;77.43;100170.00;4993905;28;19913;-83
2021/10/24 20:11:54;;;;;;;;;;;;;;;4.13;77.34;100168.28;4974909;28;20004;-83
2021/10/24 20:14:19;;;;;;;;;;;;;;;4.19;77.18;100176.06;4993682;28;19926;-83
2021/10/24 20:16:44;;;;;;;;;;;;;;;4.17;76.90;100177.00;4993220;28;19925;-84
2021/10/24 20:19:09;;;;;;;;;;;;;;;4.17;76.84;100180.47;4993492;28;19929;-82
2021/10/24 20:21:35;;;;;;;;;;;;;;;4.21;76.90;100178.69;4993256;28;19951;-84
2021/10/24 20:24:01;;;;;;;;;;;;;;;4.22;76.69;100176.94;4993292;28;19918;-84
2021/10/24 20:26:26;;;;;;;;;;;;;;;4.24;76.78;100170.78;4991970;28;19988;-83
2021/10/24 20:28:51;;;;;;;;;;;;;;;4.26;76.54;100173.38;4992584;28;19933;-84
2021/10/24 20:31:17;;;;;;;;;;;;;;;4.27;76.27;100180.38;4992629;28;19932;-83
2021/10/24 20:33:43;;;;;;;;;;;;;;;4.28;76.32;100177.75;4974699;28;19922;-83
2021/10/24 20:36:10;;;;;;;;;;;;;;;4.30;76.16;100181.22;4993429;28;19976;-83
2021/10/24 20:38:35;;;;;;;;;;;;;;;4.31;76.19;100175.09;4992319;28;19932;-82
2021/10/24 20:41:01;;;;;;;;;;;;;;;4.31;75.85;100171.59;4974610;28;19921;-84
2021/10/24 20:43:26;;;;;;;;;;;;;;;4.31;75.79;100168.97;4992797;28;19928;-84
2021/10/24 20:45:53;;;;;;;;;;;;;;;4.34;75.83;100174.16;4992612;28;19922;-83
2021/10/24 20:48:18;;;;;;;;;;;;;;;4.35;75.86;100171.53;4993304;28;19925;-84
2021/10/24 20:50:44;;;;;;;;;;;;;;;4.38;75.68;100175.03;4991726;28;20309;-82
2021/10/24 20:53:09;;;;;;;;;;;;;;;4.39;75.73;100174.13;4992828;28;20009;-82
2021/10/24 20:55:34;;;;;;;;;;;;;;;4.40;75.63;100168.84;4974270;28;19921;-84
2021/10/24 20:58:00;;;;;;;;;;;;;;;4.39;75.41;100172.38;4992069;28;19988;-83
2021/10/24 21:00:25;;;;;;;;;;;;;;;4.40;75.36;100165.38;4992937;28;19921;-83
2021/10/24 21:02:50;;;;;;;;;;;;;;;4.47;75.41;100177.56;4992449;28;19929;-83
2021/10/24 21:05:16;;;;;;;;;;;;;;;4.47;75.31;100173.16;4992582;28;19926;-82
2021/10/24 21:07:42;;;;;;;;;;;;;;;4.49;75.18;100178.38;4992435;28;19928;-83
2021/10/24 21:10:07;;;;;;;;;;;;;;;4.50;75.14;100174.84;4974548;28;19930;-84
2021/10/24 21:12:33;;;;;;;;;;;;;;;4.48;75.33;100180.16;4973780;28;19926;-83
2021/10/24 21:14:58;;;;;;;;;;;;;;;4.50;75.24;100175.75;4974645;28;19926;-83
2021/10/24 21:17:23;;;;;;;;;;;;;;;4.50;75.05;100170.50;4992172;28;19936;-83
2021/10/24 21:19:49;;;;;;;;;;;;;;;4.52;75.04;100175.72;4991827;28;19972;-83
2021/10/24 21:22:14;;;;;;;;;;;;;;;4.53;74.89;100173.09;4992163;28;20328;-83
2021/10/24 21:24:39;;;;;;;;;;;;;;;4.57;74.67;100175.69;4974866;28;19972;-83
2021/10/24 21:27:08;;;;;;;;;;;;;;;4.57;74.69;100180.94;4991314;28;20382;-84
2021/10/24 21:29:33;;;;;;;;;;;;;;;4.60;74.70;100183.53;4992182;28;20337;-83
2021/10/24 21:32:00;;;;;;;;;;;;;;;4.61;74.52;100180.88;4992201;28;19950;-83
2021/10/24 21:34:25;;;;;;;;;;;;;;;4.60;74.41;100181.75;4991373;28;20289;-83
2021/10/24 21:36:51;;;;;;;;;;;;;;;4.65;74.55;100182.56;4992155;28;19928;-83
2021/10/24 21:39:16;;;;;;;;;;;;;;;4.68;74.69;100177.28;4992054;28;20416;-82
2021/10/24 21:41:41;;;;;;;;;;;;;;;4.68;74.44;100173.78;4990765;28;19925;-84
2021/10/24 21:44:07;;;;;;;;;;;;;;;4.68;74.35;100174.66;4990273;28;20369;-84
2021/10/24 21:46:32;;;;;;;;;;;;;;;4.71;74.37;100174.63;4974900;28;20293;-84
2021/10/24 21:48:57;;;;;;;;;;;;;;;4.72;74.50;100175.47;4991771;28;19926;-83
2021/10/24 21:51:23;;;;;;;;;;;;;;;4.73;74.34;100171.97;4991539;28;19930;-84
2021/10/24 21:53:48;;;;;;;;;;;;;;;4.77;74.32;100178.94;4992257;28;20434;-83
2021/10/24 21:56:13;;;;;;;;;;;;;;;4.76;74.33;100177.19;4991012;28;19918;-83
2021/10/24 21:58:41;;;;;;;;;;;;;;;4.77;74.19;100176.31;4990773;28;19922;-82
2021/10/24 22:01:06;;;;;;;;;;;;;;;4.74;74.06;100173.72;4991476;28;19925;-83
2021/10/24 22:03:31;;;;;;;;;;;;;;;4.82;74.21;100181.47;4991875;28;19929;-83
2021/10/24 22:05:56;;;;;;;;;;;;;;;4.82;74.14;100179.72;4991210;28;19961;-82
2021/10/24 22:08:22;;;;;;;;;;;;;;;4.86;74.00;100181.41;4991561;28;19929;-83
2021/10/24 22:10:47;;;;;;;;;;;;;;;4.86;74.15;100173.53;4990042;28;19924;-83
2021/10/24 22:13:12;;;;;;;;;;;;;;;4.88;73.96;100176.13;4991510;28;19929;-82
2021/10/24 22:15:37;;;;;;;;;;;;;;;4.87;73.94;100177.91;4990931;28;19925;-82
2021/10/24 22:18:03;;;;;;;;;;;;;;;4.89;73.88;100181.38;4991417;28;19922;-83
2021/10/24 22:20:28;;;;;;;;;;;;;;;4.86;73.85;100173.53;4991321;28;19922;-83
2021/10/24 22:22:53;;;;;;;;;;;;;;;4.91;74.00;100179.63;4991455;28;19918;-82
2021/10/24 22:25:19;;;;;;;;;;;;;;;4.94;73.83;100183.09;4991107;28;20348;-83
2021/10/24 22:27:45;;;;;;;;;;;;;;;4.94;73.78;100178.69;4990399;28;19972;-83
2021/10/24 22:30:10;;;;;;;;;;;;;;;4.94;73.60;100177.84;4991569;28;19918;-83
2021/10/24 22:32:36;;;;;;;;;;;;;;;4.96;73.73;100179.53;4974440;28;19969;-83
2021/10/24 22:35:01;;;;;;;;;;;;;;;4.98;73.42;100180.41;4990888;28;20005;-83
2021/10/24 22:37:27;;;;;;;;;;;;;;;4.98;73.56;100187.38;4991297;28;20361;-83
2021/10/24 22:39:52;;;;;;;;;;;;;;;4.99;73.41;100184.75;4991605;28;19961;-82
2021/10/24 22:42:18;;;;;;;;;;;;;;;5.00;73.50;100183.00;4989685;28;19921;-83
2021/10/24 22:44:43;;;;;;;;;;;;;;;4.99;73.56;100184.75;4991064;28;19926;-84
2021/10/24 22:47:09;;;;;;;;;;;;;;;5.05;73.69;100183.81;4994571;28;20357;-83
2021/10/24 22:49:34;;;;;;;;;;;;;;;5.03;73.64;100173.31;4995428;28;19921;-83
2021/10/24 22:52:00;;;;;;;;;;;;;;;5.04;73.48;100175.06;4995246;28;19928;-83
2021/10/24 22:54:25;;;;;;;;;;;;;;;5.04;73.44;100174.19;4995276;28;20293;-83
2021/10/24 22:56:50;;;;;;;;;;;;;;;5.07;73.42;100177.66;4993735;28;19922;-83
